sensor_id;sensor_type;location;lat;lon;timestamp;pressure;altitude;pressure_sealevel;temperature
12061;BMP180;6091;51.432;6.880;2023-07-31T00:00:26;100360.00;;;27.90
12061;BMP180;6091;51.432;6.880;2023-07-31T00:02:54;100352.00;;;27.90
12061;BMP180;6091;51.432;6.880;2023-07-31T00:05:24;100359.00;;;27.90
12061;BMP180;6091;51.432;6.880;2023-07-31T00:07:51;100369.00;;;27.90
12061;BMP180;6091;51.432;6.880;2023-07-31T00:10:18;100369.00;;;27.90
12061;BMP180;6091;51.432;6.880;2023-07-31T00:12:46;100371.00;;;27.90
12061;BMP180;6091;51.432;6.880;2023-07-31T00:15:15;100362.00;;;27.90
12061;BMP180;6091;51.432;6.880;2023-07-31T00:17:43;100362.00;;;27.90
12061;BMP180;6091;51.432;6.880;2023-07-31T00:20:10;100365.00;;;27.90
12061;BMP180;6091;51.432;6.880;2023-07-31T00:22:38;100364.00;;;27.90
12061;BMP180;6091;51.432;6.880;2023-07-31T00:25:05;100354.00;;;27.90
12061;BMP180;6091;51.432;6.880;2023-07-31T00:27:33;100358.00;;;27.90
12061;BMP180;6091;51.432;6.880;2023-07-31T00:30:00;100364.00;;;27.90
12061;BMP180;6091;51.432;6.880;2023-07-31T00:32:27;100360.00;;;27.90
12061;BMP180;6091;51.432;6.880;2023-07-31T00:34:54;100359.00;;;27.90
12061;BMP180;6091;51.432;6.880;2023-07-31T00:37:22;100355.00;;;27.90
12061;BMP180;6091;51.432;6.880;2023-07-31T00:39:49;100356.00;;;27.90
12061;BMP180;6091;51.432;6.880;2023-07-31T00:42:16;100349.00;;;27.90
12061;BMP180;6091;51.432;6.880;2023-07-31T00:44:43;100351.00;;;27.90
12061;BMP180;6091;51.432;6.880;2023-07-31T00:47:10;100347.00;;;27.90
12061;BMP180;6091;51.432;6.880;2023-07-31T00:49:37;100347.00;;;27.90
12061;BMP180;6091;51.432;6.880;2023-07-31T00:52:05;100353.00;;;27.90
12061;BMP180;6091;51.432;6.880;2023-07-31T00:54:33;100349.00;;;27.90
12061;BMP180;6091;51.432;6.880;2023-07-31T00:57:01;100354.00;;;27.90
12061;BMP180;6091;51.432;6.880;2023-07-31T00:59:28;100356.00;;;27.90
12061;BMP180;6091;51.432;6.880;2023-07-31T01:01:55;100351.00;;;27.90
12061;BMP180;6091;51.432;6.880;2023-07-31T01:04:22;100362.00;;;27.90
12061;BMP180;6091;51.432;6.880;2023-07-31T01:07:14;100350.00;;;27.90
12061;BMP180;6091;51.432;6.880;2023-07-31T01:10:06;100357.00;;;27.80
12061;BMP180;6091;51.432;6.880;2023-07-31T01:12:37;100345.00;;;27.80
12061;BMP180;6091;51.432;6.880;2023-07-31T01:15:07;100347.00;;;27.80
12061;BMP180;6091;51.432;6.880;2023-07-31T01:17:38;100351.00;;;27.80
12061;BMP180;6091;51.432;6.880;2023-07-31T01:20:12;100347.00;;;27.80
12061;BMP180;6091;51.432;6.880;2023-07-31T01:23:22;100352.00;;;27.80
12061;BMP180;6091;51.432;6.880;2023-07-31T01:26:19;100358.00;;;27.80
12061;BMP180;6091;51.432;6.880;2023-07-31T01:31:23;100354.00;;;27.80
12061;BMP180;6091;51.432;6.880;2023-07-31T01:33:54;100347.00;;;27.80
12061;BMP180;6091;51.432;6.880;2023-07-31T01:36:23;100351.00;;;27.80
12061;BMP180;6091;51.432;6.880;2023-07-31T01:38:50;100347.00;;;27.80
12061;BMP180;6091;51.432;6.880;2023-07-31T01:41:18;100333.00;;;27.80
12061;BMP180;6091;51.432;6.880;2023-07-31T01:43:46;100335.00;;;27.80
12061;BMP180;6091;51.432;6.880;2023-07-31T01:46:13;100341.00;;;27.80
12061;BMP180;6091;51.432;6.880;2023-07-31T01:48:40;100339.00;;;27.80
12061;BMP180;6091;51.432;6.880;2023-07-31T01:51:07;100330.00;;;27.80
12061;BMP180;6091;51.432;6.880;2023-07-31T01:53:34;100338.00;;;27.80
12061;BMP180;6091;51.432;6.880;2023-07-31T01:56:02;100335.00;;;27.80
12061;BMP180;6091;51.432;6.880;2023-07-31T01:58:29;100330.00;;;27.80
12061;BMP180;6091;51.432;6.880;2023-07-31T02:00:56;100330.00;;;27.80
12061;BMP180;6091;51.432;6.880;2023-07-31T02:03:23;100336.00;;;27.80
12061;BMP180;6091;51.432;6.880;2023-07-31T02:05:50;100330.00;;;27.80
12061;BMP180;6091;51.432;6.880;2023-07-31T02:08:17;100325.00;;;27.80
12061;BMP180;6091;51.432;6.880;2023-07-31T02:10:46;100321.00;;;27.80
12061;BMP180;6091;51.432;6.880;2023-07-31T02:13:13;100316.00;;;27.80
12061;BMP180;6091;51.432;6.880;2023-07-31T02:15:40;100321.00;;;27.80
12061;BMP180;6091;51.432;6.880;2023-07-31T02:18:07;100317.00;;;27.80
12061;BMP180;6091;51.432;6.880;2023-07-31T02:20:34;100320.00;;;27.80
12061;BMP180;6091;51.432;6.880;2023-07-31T02:23:02;100313.00;;;27.80
12061;BMP180;6091;51.432;6.880;2023-07-31T02:25:29;100316.00;;;27.80
12061;BMP180;6091;51.432;6.880;2023-07-31T02:27:56;100321.00;;;27.80
12061;BMP180;6091;51.432;6.880;2023-07-31T02:30:23;100315.00;;;27.80
12061;BMP180;6091;51.432;6.880;2023-07-31T02:32:50;100320.00;;;27.80
12061;BMP180;6091;51.432;6.880;2023-07-31T02:35:17;100308.00;;;27.80
12061;BMP180;6091;51.432;6.880;2023-07-31T02:37:45;100309.00;;;27.80
12061;BMP180;6091;51.432;6.880;2023-07-31T02:40:12;100312.00;;;27.80
12061;BMP180;6091;51.432;6.880;2023-07-31T02:42:40;100309.00;;;27.80
12061;BMP180;6091;51.432;6.880;2023-07-31T02:45:07;100305.00;;;27.80
12061;BMP180;6091;51.432;6.880;2023-07-31T02:47:35;100306.00;;;27.80
12061;BMP180;6091;51.432;6.880;2023-07-31T02:50:03;100306.00;;;27.80
12061;BMP180;6091;51.432;6.880;2023-07-31T02:52:30;100314.00;;;27.80
12061;BMP180;6091;51.432;6.880;2023-07-31T02:54:58;100301.00;;;27.80
12061;BMP180;6091;51.432;6.880;2023-07-31T02:57:25;100303.00;;;27.80
12061;BMP180;6091;51.432;6.880;2023-07-31T02:59:52;100293.00;;;27.80
12061;BMP180;6091;51.432;6.880;2023-07-31T03:02:19;100297.00;;;27.80
12061;BMP180;6091;51.432;6.880;2023-07-31T03:04:47;100289.00;;;27.80
12061;BMP180;6091;51.432;6.880;2023-07-31T03:07:14;100290.00;;;27.80
12061;BMP180;6091;51.432;6.880;2023-07-31T03:09:41;100288.00;;;27.80
12061;BMP180;6091;51.432;6.880;2023-07-31T03:12:09;100293.00;;;27.80
12061;BMP180;6091;51.432;6.880;2023-07-31T03:14:36;100284.00;;;27.80
12061;BMP180;6091;51.432;6.880;2023-07-31T03:17:03;100284.00;;;27.80
12061;BMP180;6091;51.432;6.880;2023-07-31T03:19:31;100279.00;;;27.80
12061;BMP180;6091;51.432;6.880;2023-07-31T03:21:59;100290.00;;;27.80
12061;BMP180;6091;51.432;6.880;2023-07-31T03:24:28;100288.00;;;27.80
12061;BMP180;6091;51.432;6.880;2023-07-31T03:26:55;100282.00;;;27.80
12061;BMP180;6091;51.432;6.880;2023-07-31T03:29:22;100284.00;;;27.80
12061;BMP180;6091;51.432;6.880;2023-07-31T03:31:50;100278.00;;;27.80
12061;BMP180;6091;51.432;6.880;2023-07-31T03:34:17;100284.00;;;27.70
12061;BMP180;6091;51.432;6.880;2023-07-31T03:36:44;100285.00;;;27.80
12061;BMP180;6091;51.432;6.880;2023-07-31T03:39:12;100277.00;;;27.80
12061;BMP180;6091;51.432;6.880;2023-07-31T03:41:39;100285.00;;;27.80
12061;BMP180;6091;51.432;6.880;2023-07-31T03:44:06;100285.00;;;27.70
12061;BMP180;6091;51.432;6.880;2023-07-31T03:46:33;100280.00;;;27.80
12061;BMP180;6091;51.432;6.880;2023-07-31T03:49:01;100273.00;;;27.80
12061;BMP180;6091;51.432;6.880;2023-07-31T03:51:28;100279.00;;;27.70
12061;BMP180;6091;51.432;6.880;2023-07-31T03:53:55;100271.00;;;27.80
12061;BMP180;6091;51.432;6.880;2023-07-31T03:56:24;100271.00;;;27.80
12061;BMP180;6091;51.432;6.880;2023-07-31T03:58:50;100282.00;;;27.70
12061;BMP180;6091;51.432;6.880;2023-07-31T04:01:19;100277.00;;;27.80
12061;BMP180;6091;51.432;6.880;2023-07-31T04:03:46;100272.00;;;27.70
12061;BMP180;6091;51.432;6.880;2023-07-31T04:06:13;100278.00;;;27.70
12061;BMP180;6091;51.432;6.880;2023-07-31T04:08:45;100261.00;;;27.70
12061;BMP180;6091;51.432;6.880;2023-07-31T04:11:12;100268.00;;;27.70
12061;BMP180;6091;51.432;6.880;2023-07-31T04:13:39;100271.00;;;27.70
12061;BMP180;6091;51.432;6.880;2023-07-31T04:16:06;100269.00;;;27.70
12061;BMP180;6091;51.432;6.880;2023-07-31T04:18:33;100261.00;;;27.70
12061;BMP180;6091;51.432;6.880;2023-07-31T04:21:00;100260.00;;;27.70
12061;BMP180;6091;51.432;6.880;2023-07-31T04:23:29;100246.00;;;27.70
12061;BMP180;6091;51.432;6.880;2023-07-31T04:25:56;100246.00;;;27.70
12061;BMP180;6091;51.432;6.880;2023-07-31T04:28:25;100242.00;;;27.70
12061;BMP180;6091;51.432;6.880;2023-07-31T04:30:53;100250.00;;;27.70
12061;BMP180;6091;51.432;6.880;2023-07-31T04:33:20;100248.00;;;27.80
12061;BMP180;6091;51.432;6.880;2023-07-31T04:35:52;100242.00;;;27.70
12061;BMP180;6091;51.432;6.880;2023-07-31T04:38:21;100249.00;;;27.80
12061;BMP180;6091;51.432;6.880;2023-07-31T04:40:48;100245.00;;;27.80
12061;BMP180;6091;51.432;6.880;2023-07-31T04:43:15;100245.00;;;27.70
12061;BMP180;6091;51.432;6.880;2023-07-31T04:45:46;100242.00;;;27.80
12061;BMP180;6091;51.432;6.880;2023-07-31T04:48:14;100240.00;;;27.70
12061;BMP180;6091;51.432;6.880;2023-07-31T04:50:42;100235.00;;;27.70
12061;BMP180;6091;51.432;6.880;2023-07-31T04:53:09;100232.00;;;27.80
12061;BMP180;6091;51.432;6.880;2023-07-31T04:55:36;100232.00;;;27.80
12061;BMP180;6091;51.432;6.880;2023-07-31T04:58:03;100225.00;;;27.70
12061;BMP180;6091;51.432;6.880;2023-07-31T05:00:30;100223.00;;;27.80
12061;BMP180;6091;51.432;6.880;2023-07-31T05:02:57;100225.00;;;27.80
12061;BMP180;6091;51.432;6.880;2023-07-31T05:05:24;100219.00;;;27.80
12061;BMP180;6091;51.432;6.880;2023-07-31T05:07:51;100210.00;;;27.80
12061;BMP180;6091;51.432;6.880;2023-07-31T05:10:18;100212.00;;;27.80
12061;BMP180;6091;51.432;6.880;2023-07-31T05:12:45;100196.00;;;27.80
12061;BMP180;6091;51.432;6.880;2023-07-31T05:15:13;100209.00;;;27.80
12061;BMP180;6091;51.432;6.880;2023-07-31T05:17:42;100199.00;;;27.80
12061;BMP180;6091;51.432;6.880;2023-07-31T05:20:09;100197.00;;;27.80
12061;BMP180;6091;51.432;6.880;2023-07-31T05:22:37;100194.00;;;27.80
12061;BMP180;6091;51.432;6.880;2023-07-31T05:25:05;100198.00;;;27.80
12061;BMP180;6091;51.432;6.880;2023-07-31T05:27:32;100195.00;;;27.80
12061;BMP180;6091;51.432;6.880;2023-07-31T05:29:59;100197.00;;;27.80
12061;BMP180;6091;51.432;6.880;2023-07-31T05:32:27;100195.00;;;27.80
12061;BMP180;6091;51.432;6.880;2023-07-31T05:34:54;100199.00;;;27.80
12061;BMP180;6091;51.432;6.880;2023-07-31T05:37:22;100198.00;;;27.80
12061;BMP180;6091;51.432;6.880;2023-07-31T05:39:49;100190.00;;;27.80
12061;BMP180;6091;51.432;6.880;2023-07-31T05:42:16;100189.00;;;27.80
12061;BMP180;6091;51.432;6.880;2023-07-31T05:44:43;100188.00;;;27.90
12061;BMP180;6091;51.432;6.880;2023-07-31T05:47:10;100183.00;;;27.80
12061;BMP180;6091;51.432;6.880;2023-07-31T05:49:37;100183.00;;;27.90
12061;BMP180;6091;51.432;6.880;2023-07-31T05:52:05;100184.00;;;27.80
12061;BMP180;6091;51.432;6.880;2023-07-31T05:54:32;100178.00;;;27.90
12061;BMP180;6091;51.432;6.880;2023-07-31T05:57:00;100177.00;;;27.90
12061;BMP180;6091;51.432;6.880;2023-07-31T05:59:27;100167.00;;;27.90
12061;BMP180;6091;51.432;6.880;2023-07-31T06:01:54;100170.00;;;27.90
12061;BMP180;6091;51.432;6.880;2023-07-31T06:04:21;100163.00;;;27.90
12061;BMP180;6091;51.432;6.880;2023-07-31T06:06:51;100156.00;;;27.90
12061;BMP180;6091;51.432;6.880;2023-07-31T06:09:18;100149.00;;;27.90
12061;BMP180;6091;51.432;6.880;2023-07-31T06:11:47;100150.00;;;27.90
12061;BMP180;6091;51.432;6.880;2023-07-31T06:14:14;100153.00;;;28.00
12061;BMP180;6091;51.432;6.880;2023-07-31T06:16:41;100163.00;;;28.00
12061;BMP180;6091;51.432;6.880;2023-07-31T06:19:08;100161.00;;;28.00
12061;BMP180;6091;51.432;6.880;2023-07-31T06:21:36;100158.00;;;28.00
12061;BMP180;6091;51.432;6.880;2023-07-31T06:24:09;100155.00;;;28.00
12061;BMP180;6091;51.432;6.880;2023-07-31T06:26:36;100159.00;;;28.00
12061;BMP180;6091;51.432;6.880;2023-07-31T06:29:03;100163.00;;;28.00
12061;BMP180;6091;51.432;6.880;2023-07-31T06:31:30;100168.00;;;28.00
12061;BMP180;6091;51.432;6.880;2023-07-31T06:33:57;100170.00;;;28.00
12061;BMP180;6091;51.432;6.880;2023-07-31T06:36:24;100164.00;;;28.00
12061;BMP180;6091;51.432;6.880;2023-07-31T06:38:51;100163.00;;;28.10
12061;BMP180;6091;51.432;6.880;2023-07-31T06:41:19;100162.00;;;28.10
12061;BMP180;6091;51.432;6.880;2023-07-31T06:43:46;100166.00;;;28.10
12061;BMP180;6091;51.432;6.880;2023-07-31T06:46:13;100158.00;;;28.10
12061;BMP180;6091;51.432;6.880;2023-07-31T06:48:40;100165.00;;;28.10
12061;BMP180;6091;51.432;6.880;2023-07-31T06:51:07;100156.00;;;28.10
12061;BMP180;6091;51.432;6.880;2023-07-31T06:53:34;100166.00;;;28.10
12061;BMP180;6091;51.432;6.880;2023-07-31T06:56:01;100164.00;;;28.10
12061;BMP180;6091;51.432;6.880;2023-07-31T06:58:28;100163.00;;;28.10
12061;BMP180;6091;51.432;6.880;2023-07-31T07:00:55;100165.00;;;28.10
12061;BMP180;6091;51.432;6.880;2023-07-31T07:03:23;100161.00;;;28.20
12061;BMP180;6091;51.432;6.880;2023-07-31T07:05:50;100157.00;;;28.20
12061;BMP180;6091;51.432;6.880;2023-07-31T07:08:17;100162.00;;;28.20
12061;BMP180;6091;51.432;6.880;2023-07-31T07:10:45;100156.00;;;28.20
12061;BMP180;6091;51.432;6.880;2023-07-31T07:13:13;100157.00;;;28.20
12061;BMP180;6091;51.432;6.880;2023-07-31T07:15:41;100152.00;;;28.20
12061;BMP180;6091;51.432;6.880;2023-07-31T07:18:08;100154.00;;;28.20
12061;BMP180;6091;51.432;6.880;2023-07-31T07:20:37;100157.00;;;28.20
12061;BMP180;6091;51.432;6.880;2023-07-31T07:23:05;100154.00;;;28.20
12061;BMP180;6091;51.432;6.880;2023-07-31T07:25:35;100146.00;;;28.20
12061;BMP180;6091;51.432;6.880;2023-07-31T07:28:20;100147.00;;;28.20
12061;BMP180;6091;51.432;6.880;2023-07-31T07:30:52;100147.00;;;28.30
12061;BMP180;6091;51.432;6.880;2023-07-31T07:33:25;100138.00;;;28.30
12061;BMP180;6091;51.432;6.880;2023-07-31T07:36:05;100139.00;;;28.30
12061;BMP180;6091;51.432;6.880;2023-07-31T07:38:36;100142.00;;;28.30
12061;BMP180;6091;51.432;6.880;2023-07-31T07:41:04;100138.00;;;28.30
12061;BMP180;6091;51.432;6.880;2023-07-31T07:43:31;100135.00;;;28.30
12061;BMP180;6091;51.432;6.880;2023-07-31T07:45:58;100142.00;;;28.30
12061;BMP180;6091;51.432;6.880;2023-07-31T07:48:25;100139.00;;;28.30
12061;BMP180;6091;51.432;6.880;2023-07-31T07:50:52;100128.00;;;28.30
12061;BMP180;6091;51.432;6.880;2023-07-31T07:53:19;100139.00;;;28.30
12061;BMP180;6091;51.432;6.880;2023-07-31T07:55:48;100136.00;;;28.30
12061;BMP180;6091;51.432;6.880;2023-07-31T07:58:15;100142.00;;;28.30
12061;BMP180;6091;51.432;6.880;2023-07-31T08:00:50;100134.00;;;28.40
12061;BMP180;6091;51.432;6.880;2023-07-31T08:03:18;100129.00;;;28.30
12061;BMP180;6091;51.432;6.880;2023-07-31T08:05:45;100140.00;;;28.30
12061;BMP180;6091;51.432;6.880;2023-07-31T08:08:16;100139.00;;;28.40
12061;BMP180;6091;51.432;6.880;2023-07-31T08:10:46;100127.00;;;28.30
12061;BMP180;6091;51.432;6.880;2023-07-31T08:13:13;100116.00;;;28.40
12061;BMP180;6091;51.432;6.880;2023-07-31T08:15:42;100119.00;;;28.40
12061;BMP180;6091;51.432;6.880;2023-07-31T08:18:13;100118.00;;;28.40
12061;BMP180;6091;51.432;6.880;2023-07-31T08:20:40;100118.00;;;28.40
12061;BMP180;6091;51.432;6.880;2023-07-31T08:23:08;100118.00;;;28.40
12061;BMP180;6091;51.432;6.880;2023-07-31T08:25:36;100120.00;;;28.50
12061;BMP180;6091;51.432;6.880;2023-07-31T08:28:06;100113.00;;;28.50
12061;BMP180;6091;51.432;6.880;2023-07-31T08:30:36;100117.00;;;28.80
12061;BMP180;6091;51.432;6.880;2023-07-31T08:33:13;100109.00;;;28.60
12061;BMP180;6091;51.432;6.880;2023-07-31T08:35:40;100104.00;;;28.60
12061;BMP180;6091;51.432;6.880;2023-07-31T08:38:07;100100.00;;;28.50
12061;BMP180;6091;51.432;6.880;2023-07-31T08:40:38;100103.00;;;28.60
12061;BMP180;6091;51.432;6.880;2023-07-31T08:43:09;100114.00;;;28.60
12061;BMP180;6091;51.432;6.880;2023-07-31T08:45:36;100099.00;;;28.60
12061;BMP180;6091;51.432;6.880;2023-07-31T08:48:04;100104.00;;;28.60
12061;BMP180;6091;51.432;6.880;2023-07-31T08:50:31;100111.00;;;28.60
12061;BMP180;6091;51.432;6.880;2023-07-31T08:53:00;100110.00;;;28.60
12061;BMP180;6091;51.432;6.880;2023-07-31T08:55:29;100116.00;;;28.60
12061;BMP180;6091;51.432;6.880;2023-07-31T08:57:57;100107.00;;;28.60
12061;BMP180;6091;51.432;6.880;2023-07-31T09:00:25;100115.00;;;28.60
12061;BMP180;6091;51.432;6.880;2023-07-31T09:03:01;100119.00;;;28.60
12061;BMP180;6091;51.432;6.880;2023-07-31T09:05:31;100122.00;;;28.60
12061;BMP180;6091;51.432;6.880;2023-07-31T09:08:00;100126.00;;;28.60
12061;BMP180;6091;51.432;6.880;2023-07-31T09:10:31;100116.00;;;28.60
12061;BMP180;6091;51.432;6.880;2023-07-31T09:12:59;100107.00;;;28.60
12061;BMP180;6091;51.432;6.880;2023-07-31T09:15:27;100109.00;;;28.60
12061;BMP180;6091;51.432;6.880;2023-07-31T09:18:06;100114.00;;;28.60
12061;BMP180;6091;51.432;6.880;2023-07-31T09:20:34;100122.00;;;28.60
12061;BMP180;6091;51.432;6.880;2023-07-31T09:23:13;100115.00;;;28.60
12061;BMP180;6091;51.432;6.880;2023-07-31T09:25:46;100107.00;;;28.60
12061;BMP180;6091;51.432;6.880;2023-07-31T09:28:13;100109.00;;;28.60
12061;BMP180;6091;51.432;6.880;2023-07-31T09:30:51;100111.00;;;28.60
12061;BMP180;6091;51.432;6.880;2023-07-31T09:33:19;100107.00;;;28.60
12061;BMP180;6091;51.432;6.880;2023-07-31T09:35:50;100099.00;;;28.60
12061;BMP180;6091;51.432;6.880;2023-07-31T09:38:17;100094.00;;;28.80
12061;BMP180;6091;51.432;6.880;2023-07-31T09:40:49;100089.00;;;28.70
12061;BMP180;6091;51.432;6.880;2023-07-31T09:43:20;100091.00;;;28.60
12061;BMP180;6091;51.432;6.880;2023-07-31T09:45:54;100096.00;;;28.60
12061;BMP180;6091;51.432;6.880;2023-07-31T09:48:24;100086.00;;;28.60
12061;BMP180;6091;51.432;6.880;2023-07-31T09:50:54;100082.00;;;28.60
12061;BMP180;6091;51.432;6.880;2023-07-31T09:53:29;100074.00;;;28.60
12061;BMP180;6091;51.432;6.880;2023-07-31T09:55:58;100083.00;;;28.60
12061;BMP180;6091;51.432;6.880;2023-07-31T09:58:29;100077.00;;;28.60
12061;BMP180;6091;51.432;6.880;2023-07-31T10:00:58;100080.00;;;28.60
12061;BMP180;6091;51.432;6.880;2023-07-31T10:03:29;100078.00;;;28.60
12061;BMP180;6091;51.432;6.880;2023-07-31T10:05:57;100080.00;;;28.60
12061;BMP180;6091;51.432;6.880;2023-07-31T10:08:32;100079.00;;;28.60
12061;BMP180;6091;51.432;6.880;2023-07-31T10:11:03;100079.00;;;28.60
12061;BMP180;6091;51.432;6.880;2023-07-31T10:13:32;100065.00;;;28.60
12061;BMP180;6091;51.432;6.880;2023-07-31T10:16:02;100085.00;;;28.60
12061;BMP180;6091;51.432;6.880;2023-07-31T10:18:31;100052.00;;;28.60
12061;BMP180;6091;51.432;6.880;2023-07-31T10:20:58;100070.00;;;28.60
12061;BMP180;6091;51.432;6.880;2023-07-31T10:23:27;100080.00;;;28.60
12061;BMP180;6091;51.432;6.880;2023-07-31T10:25:58;100079.00;;;28.60
12061;BMP180;6091;51.432;6.880;2023-07-31T10:28:31;100074.00;;;28.60
12061;BMP180;6091;51.432;6.880;2023-07-31T10:31:04;100077.00;;;28.60
12061;BMP180;6091;51.432;6.880;2023-07-31T10:33:33;100068.00;;;28.50
12061;BMP180;6091;51.432;6.880;2023-07-31T10:36:20;100078.00;;;28.40
12061;BMP180;6091;51.432;6.880;2023-07-31T10:38:59;100082.00;;;28.50
12061;BMP180;6091;51.432;6.880;2023-07-31T10:41:31;100076.00;;;28.50
12061;BMP180;6091;51.432;6.880;2023-07-31T10:44:03;100074.00;;;28.50
12061;BMP180;6091;51.432;6.880;2023-07-31T10:46:36;100080.00;;;28.50
12061;BMP180;6091;51.432;6.880;2023-07-31T10:49:04;100073.00;;;28.50
12061;BMP180;6091;51.432;6.880;2023-07-31T10:51:35;100073.00;;;28.50
12061;BMP180;6091;51.432;6.880;2023-07-31T10:54:14;100062.00;;;28.50
12061;BMP180;6091;51.432;6.880;2023-07-31T10:56:46;100078.00;;;28.50
12061;BMP180;6091;51.432;6.880;2023-07-31T10:59:14;100067.00;;;28.50
12061;BMP180;6091;51.432;6.880;2023-07-31T11:01:56;100064.00;;;28.50
12061;BMP180;6091;51.432;6.880;2023-07-31T11:04:29;100056.00;;;28.50
12061;BMP180;6091;51.432;6.880;2023-07-31T11:07:01;100060.00;;;28.50
12061;BMP180;6091;51.432;6.880;2023-07-31T11:09:31;100055.00;;;28.50
12061;BMP180;6091;51.432;6.880;2023-07-31T11:12:00;100045.00;;;28.50
12061;BMP180;6091;51.432;6.880;2023-07-31T11:14:27;100053.00;;;28.50
12061;BMP180;6091;51.432;6.880;2023-07-31T11:16:54;100050.00;;;28.50
12061;BMP180;6091;51.432;6.880;2023-07-31T11:19:23;100051.00;;;28.50
12061;BMP180;6091;51.432;6.880;2023-07-31T11:21:52;100061.00;;;28.50
12061;BMP180;6091;51.432;6.880;2023-07-31T11:24:22;100065.00;;;28.50
12061;BMP180;6091;51.432;6.880;2023-07-31T11:26:52;100065.00;;;28.50
12061;BMP180;6091;51.432;6.880;2023-07-31T11:29:20;100060.00;;;28.50
12061;BMP180;6091;51.432;6.880;2023-07-31T11:31:48;100048.00;;;28.50
12061;BMP180;6091;51.432;6.880;2023-07-31T11:34:16;100051.00;;;28.50
12061;BMP180;6091;51.432;6.880;2023-07-31T11:36:54;100042.00;;;28.60
12061;BMP180;6091;51.432;6.880;2023-07-31T11:39:25;100041.00;;;28.60
12061;BMP180;6091;51.432;6.880;2023-07-31T11:41:59;100048.00;;;28.60
12061;BMP180;6091;51.432;6.880;2023-07-31T11:44:39;100042.00;;;28.60
12061;BMP180;6091;51.432;6.880;2023-07-31T11:47:07;100047.00;;;28.60
12061;BMP180;6091;51.432;6.880;2023-07-31T11:49:37;100057.00;;;28.60
12061;BMP180;6091;51.432;6.880;2023-07-31T11:52:04;100046.00;;;28.60
12061;BMP180;6091;51.432;6.880;2023-07-31T11:54:32;100047.00;;;28.60
12061;BMP180;6091;51.432;6.880;2023-07-31T11:56:59;100050.00;;;28.60
12061;BMP180;6091;51.432;6.880;2023-07-31T11:59:28;100050.00;;;28.60
12061;BMP180;6091;51.432;6.880;2023-07-31T12:01:58;100054.00;;;28.60
12061;BMP180;6091;51.432;6.880;2023-07-31T12:04:25;100060.00;;;28.60
12061;BMP180;6091;51.432;6.880;2023-07-31T12:06:53;100052.00;;;28.60
12061;BMP180;6091;51.432;6.880;2023-07-31T12:09:24;100055.00;;;28.60
12061;BMP180;6091;51.432;6.880;2023-07-31T12:11:53;100045.00;;;28.60
12061;BMP180;6091;51.432;6.880;2023-07-31T12:14:27;100060.00;;;28.60
12061;BMP180;6091;51.432;6.880;2023-07-31T12:16:58;100049.00;;;28.50
12061;BMP180;6091;51.432;6.880;2023-07-31T12:19:30;100043.00;;;28.50
12061;BMP180;6091;51.432;6.880;2023-07-31T12:21:59;100050.00;;;28.50
12061;BMP180;6091;51.432;6.880;2023-07-31T12:24:27;100037.00;;;28.50
12061;BMP180;6091;51.432;6.880;2023-07-31T12:26:55;100033.00;;;28.50
12061;BMP180;6091;51.432;6.880;2023-07-31T12:29:22;100043.00;;;28.50
12061;BMP180;6091;51.432;6.880;2023-07-31T12:31:49;100031.00;;;28.50
12061;BMP180;6091;51.432;6.880;2023-07-31T12:34:20;100031.00;;;28.50
12061;BMP180;6091;51.432;6.880;2023-07-31T12:36:49;100021.00;;;28.50
12061;BMP180;6091;51.432;6.880;2023-07-31T12:39:19;100015.00;;;28.50
12061;BMP180;6091;51.432;6.880;2023-07-31T12:41:46;100018.00;;;28.50
12061;BMP180;6091;51.432;6.880;2023-07-31T12:44:13;100015.00;;;28.50
12061;BMP180;6091;51.432;6.880;2023-07-31T12:46:40;100019.00;;;28.50
12061;BMP180;6091;51.432;6.880;2023-07-31T12:49:08;100028.00;;;28.50
12061;BMP180;6091;51.432;6.880;2023-07-31T12:51:35;100029.00;;;28.50
12061;BMP180;6091;51.432;6.880;2023-07-31T12:54:02;100029.00;;;28.50
12061;BMP180;6091;51.432;6.880;2023-07-31T12:56:29;100023.00;;;28.50
12061;BMP180;6091;51.432;6.880;2023-07-31T12:58:56;100027.00;;;28.50
12061;BMP180;6091;51.432;6.880;2023-07-31T13:01:23;100023.00;;;28.50
12061;BMP180;6091;51.432;6.880;2023-07-31T13:03:50;100019.00;;;28.50
12061;BMP180;6091;51.432;6.880;2023-07-31T13:06:17;100004.00;;;28.50
12061;BMP180;6091;51.432;6.880;2023-07-31T13:08:44;100004.00;;;28.50
12061;BMP180;6091;51.432;6.880;2023-07-31T13:11:11;99984.00;;;28.50
12061;BMP180;6091;51.432;6.880;2023-07-31T13:13:38;99984.00;;;28.50
12061;BMP180;6091;51.432;6.880;2023-07-31T13:16:06;99980.00;;;28.50
12061;BMP180;6091;51.432;6.880;2023-07-31T13:18:33;99980.00;;;28.50
12061;BMP180;6091;51.432;6.880;2023-07-31T13:21:00;99969.00;;;28.50
12061;BMP180;6091;51.432;6.880;2023-07-31T13:23:27;99972.00;;;28.50
12061;BMP180;6091;51.432;6.880;2023-07-31T13:25:55;99973.00;;;28.50
12061;BMP180;6091;51.432;6.880;2023-07-31T13:28:22;99960.00;;;28.60
12061;BMP180;6091;51.432;6.880;2023-07-31T13:30:49;99964.00;;;28.60
12061;BMP180;6091;51.432;6.880;2023-07-31T13:33:16;99956.00;;;28.60
12061;BMP180;6091;51.432;6.880;2023-07-31T13:36:00;99952.00;;;28.60
12061;BMP180;6091;51.432;6.880;2023-07-31T13:38:27;99952.00;;;28.60
12061;BMP180;6091;51.432;6.880;2023-07-31T13:40:54;99958.00;;;28.60
12061;BMP180;6091;51.432;6.880;2023-07-31T13:43:21;99944.00;;;28.60
12061;BMP180;6091;51.432;6.880;2023-07-31T13:45:48;99946.00;;;28.60
12061;BMP180;6091;51.432;6.880;2023-07-31T13:48:27;99946.00;;;28.60
12061;BMP180;6091;51.432;6.880;2023-07-31T13:50:57;99954.00;;;28.60
12061;BMP180;6091;51.432;6.880;2023-07-31T13:53:24;99957.00;;;28.60
12061;BMP180;6091;51.432;6.880;2023-07-31T13:55:54;99953.00;;;28.60
12061;BMP180;6091;51.432;6.880;2023-07-31T13:58:21;99940.00;;;28.60
12061;BMP180;6091;51.432;6.880;2023-07-31T14:00:48;99952.00;;;28.60
12061;BMP180;6091;51.432;6.880;2023-07-31T14:03:15;99947.00;;;28.60
12061;BMP180;6091;51.432;6.880;2023-07-31T14:05:42;99947.00;;;28.60
12061;BMP180;6091;51.432;6.880;2023-07-31T14:08:09;99940.00;;;28.60
12061;BMP180;6091;51.432;6.880;2023-07-31T14:10:36;99933.00;;;28.60
12061;BMP180;6091;51.432;6.880;2023-07-31T14:13:03;99931.00;;;28.70
12061;BMP180;6091;51.432;6.880;2023-07-31T14:15:30;99929.00;;;28.70
12061;BMP180;6091;51.432;6.880;2023-07-31T14:17:59;99932.00;;;28.70
12061;BMP180;6091;51.432;6.880;2023-07-31T14:20:29;99927.00;;;28.70